Time,TemperatureF,DewpointF,PressureIn,WindDirection,WindDirectionDegrees,WindSpeedMPH,WindSpeedGustMPH,Humidity,HourlyPrecipIn,Conditions,Clouds,dailyrainin,SoftwareType,DateUTC
2013-06-28 00:01:00,80.5,69.4,29.76,West,275,0.0,3.0,69,0.00,,CLR,0.00,VWS V14.01,2013-06-28 05:01:00,
2013-06-28 00:11:00,80.7,70.0,29.76,WNW,298,1.0,5.0,70,0.00,,CLR,0.00,VWS V14.01,2013-06-28 05:11:00,
2013-06-28 00:16:00,80.7,70.0,29.76,West,281,0.0,3.0,70,0.00,,CLR,0.00,VWS V14.01,2013-06-28 05:16:00,
2013-06-28 00:26:00,80.7,70.4,29.76,WNW,283,0.0,2.0,71,0.00,,CLR,0.00,VWS V14.01,2013-06-28 05:26:00,
2013-06-28 00:31:00,80.9,70.2,29.76,WNW,283,0.0,0.0,70,0.00,,CLR,0.00,VWS V14.01,2013-06-28 05:31:00,
2013-06-28 00:36:00,81.1,70.8,29.76,WNW,283,0.0,0.0,71,0.00,,CLR,0.00,VWS V14.01,2013-06-28 05:36:00,
2013-06-28 00:46:00,81.1,70.8,29.76,WNW,283,0.0,2.0,71,0.00,,CLR,0.00,VWS V14.01,2013-06-28 05:46:00,
2013-06-28 00:51:00,80.9,70.6,29.76,WNW,283,0.0,2.0,71,0.00,,CLR,0.00,VWS V14.01,2013-06-28 05:51:00,
2013-06-28 01:01:00,80.9,71.0,29.75,WNW,283,0.0,0.0,72,0.00,,CLR,0.00,VWS V14.01,2013-06-28 06:01:00,
2013-06-28 01:11:00,80.7,70.8,29.75,WNW,283,0.0,0.0,72,0.00,,CLR,0.00,VWS V14.01,2013-06-28 06:11:00,
2013-06-28 01:21:00,80.5,71.1,29.74,WNW,283,0.0,0.0,73,0.00,,CLR,0.00,VWS V14.01,2013-06-28 06:21:00,
2013-06-28 01:26:00,80.3,70.9,29.74,WNW,283,0.0,0.0,73,0.00,,CLR,0.00,VWS V14.01,2013-06-28 06:26:00,
2013-06-28 01:31:00,80.3,71.3,29.75,WNW,283,0.0,0.0,74,0.00,,CLR,0.00,VWS V14.01,2013-06-28 06:31:00,
2013-06-28 01:36:00,80.1,71.1,29.75,WNW,283,0.0,0.0,74,0.00,,CLR,0.00,VWS V14.01,2013-06-28 06:36:00,
2013-06-28 01:41:00,80.1,71.1,29.75,WNW,283,0.0,1.0,74,0.00,,CLR,0.00,VWS V14.01,2013-06-28 06:41:00,
2013-06-28 01:46:00,79.9,70.9,29.75,WNW,283,0.0,0.0,74,0.00,,CLR,0.00,VWS V14.01,2013-06-28 06:46:00,
2013-06-28 01:56:00,79.2,70.6,29.75,WNW,283,0.0,0.0,75,0.00,,CLR,0.00,VWS V14.01,2013-06-28 06:56:00,
2013-06-28 02:01:00,78.8,70.6,29.74,WNW,283,0.0,0.0,76,0.00,,CLR,0.00,VWS V14.01,2013-06-28 07:01:00,
2013-06-28 02:11:00,77.6,70.6,29.74,WNW,283,0.0,2.0,79,0.00,,CLR,0.00,VWS V14.01,2013-06-28 07:11:00,
2013-06-28 02:16:00,77.0,70.4,29.75,WNW,283,0.0,2.0,80,0.00,,CLR,0.00,VWS V14.01,2013-06-28 07:16:00,
2013-06-28 02:21:00,76.8,70.5,29.75,WNW,283,0.0,0.0,81,0.00,,CLR,0.00,VWS V14.01,2013-06-28 07:21:00,
2013-06-28 02:31:00,77.2,70.9,29.73,WNW,283,0.0,0.0,81,0.00,,CLR,0.00,VWS V14.01,2013-06-28 07:31:00,
2013-06-28 02:36:00,77.6,70.9,29.73,WNW,283,0.0,0.0,80,0.00,,CLR,0.00,VWS V14.01,2013-06-28 07:36:00,
2013-06-28 02:46:00,77.6,70.9,29.72,WNW,283,0.0,0.0,80,0.00,,CLR,0.00,VWS V14.01,2013-06-28 07:46:00,
2013-06-28 02:51:00,77.2,70.9,29.72,WNW,283,0.0,0.0,81,0.00,,CLR,0.00,VWS V14.01,2013-06-28 07:51:00,
2013-06-28 03:01:00,76.7,70.8,29.72,WSW,246,1.0,3.0,82,0.00,,CLR,0.00,VWS V14.01,2013-06-28 08:01:00,
2013-06-28 03:11:00,76.3,70.8,29.72,WSW,246,0.0,0.0,83,0.00,,CLR,0.00,VWS V14.01,2013-06-28 08:11:00,
2013-06-28 03:16:00,76.3,70.8,29.71,WSW,246,0.0,0.0,83,0.00,,CLR,0.00,VWS V14.01,2013-06-28 08:16:00,
2013-06-28 03:21:00,76.5,71.0,29.71,WSW,246,0.0,0.0,83,0.00,,CLR,0.00,VWS V14.01,2013-06-28 08:21:00,
2013-06-28 03:26:00,76.7,70.8,29.71,WSW,246,0.0,0.0,82,0.00,,CLR,0.00,VWS V14.01,2013-06-28 08:26:00,
2013-06-28 03:36:00,76.8,70.9,29.71,WSW,246,0.0,0.0,82,0.00,,CLR,0.00,VWS V14.01,2013-06-28 08:36:00,
2013-06-28 03:46:00,76.8,70.5,29.70,WSW,246,0.0,0.0,81,0.00,,CLR,0.00,VWS V14.01,2013-06-28 08:46:00,
2013-06-28 03:56:00,76.7,70.4,29.70,WSW,246,0.0,0.0,81,0.00,,CLR,0.00,VWS V14.01,2013-06-28 08:56:00,
2013-06-28 04:01:00,76.7,70.4,29.70,WSW,246,1.0,1.0,81,0.00,,CLR,0.00,VWS V14.01,2013-06-28 09:01:00,
2013-06-28 04:11:00,76.7,70.4,29.70,WSW,246,0.0,3.0,81,0.00,,CLR,0.00,VWS V14.01,2013-06-28 09:11:00,
2013-06-28 04:21:00,76.8,70.2,29.71,WSW,246,0.0,0.0,80,0.00,,CLR,0.00,VWS V14.01,2013-06-28 09:21:00,
2013-06-28 04:31:00,77.2,70.9,29.77,WNW,290,11.0,11.0,81,0.00,,CLR,0.00,VWS V14.01,2013-06-28 09:31:00,
2013-06-28 04:36:00,77.0,69.2,29.77,WSW,244,12.0,19.0,77,0.00,,OVC085,0.00,VWS V14.01,2013-06-28 09:36:00,
2013-06-28 04:41:00,75.8,68.1,29.77,NW,319,12.0,20.0,77,0.06,,OVC085,0.06,VWS V14.01,2013-06-28 09:41:00,
2013-06-28 04:46:00,74.2,68.4,29.79,WNW,303,1.0,12.0,82,0.13,,OVC085,0.13,VWS V14.01,2013-06-28 09:46:00,
2013-06-28 04:56:00,73.3,67.1,29.79,West,259,3.0,7.0,81,0.14,,OVC085,0.14,VWS V14.01,2013-06-28 09:56:00,
2013-06-28 05:01:00,73.2,67.7,29.81,WSW,257,2.0,8.0,83,0.14,,OVC085,0.14,VWS V14.01,2013-06-28 10:01:00,
2013-06-28 05:11:00,72.8,67.7,29.81,WSW,257,4.0,13.0,84,0.15,,OVC110,0.15,VWS V14.01,2013-06-28 10:11:00,
2013-06-28 05:16:00,72.7,67.9,29.77,NW,321,2.0,7.0,85,0.15,,OVC110,0.15,VWS V14.01,2013-06-28 10:16:00,
2013-06-28 05:26:00,72.5,67.7,29.77,North,355,0.0,2.0,85,0.15,,OVC110,0.15,VWS V14.01,2013-06-28 10:26:00,
2013-06-28 05:36:00,72.5,68.1,29.74,NNE,26,2.0,2.0,86,0.15,,-RA,0.15,VWS V14.01,2013-06-28 10:36:00,
2013-06-28 05:46:00,72.3,68.2,29.73,NNE,26,0.0,0.0,87,0.10,,-RA,0.16,VWS V14.01,2013-06-28 10:46:00,
2013-06-28 05:51:00,72.1,68.0,29.73,ESE,115,2.0,3.0,87,0.03,,-RA,0.16,VWS V14.01,2013-06-28 10:51:00,
2013-06-28 05:56:00,72.1,68.3,29.73,ESE,115,0.0,3.0,88,0.02,,-RA,0.16,VWS V14.01,2013-06-28 10:56:00,
2013-06-28 06:01:00,72.1,68.3,29.75,SW,225,0.0,4.0,88,0.02,,-RA,0.16,VWS V14.01,2013-06-28 11:01:00,
2013-06-28 06:06:00,72.1,68.3,29.75,SSW,206,2.0,4.0,88,0.03,,SCT110,0.17,VWS V14.01,2013-06-28 11:06:00,
2013-06-28 06:11:00,72.0,68.6,29.75,SW,222,0.0,4.0,89,0.02,,SCT110,0.17,VWS V14.01,2013-06-28 11:11:00,
2013-06-28 06:21:00,71.8,68.4,29.74,WSW,243,1.0,6.0,89,0.02,,SCT110,0.17,VWS V14.01,2013-06-28 11:21:00,
2013-06-28 06:26:00,71.6,68.2,29.74,WSW,252,0.0,4.0,89,0.03,,SCT110,0.18,VWS V14.01,2013-06-28 11:26:00,
2013-06-28 06:31:00,71.6,68.2,29.72,NW,306,0.0,5.0,89,0.03,,SCT110,0.18,VWS V14.01,2013-06-28 11:31:00,
2013-06-28 06:41:00,71.6,68.2,29.72,NW,306,0.0,3.0,89,0.04,,-RA,0.19,VWS V14.01,2013-06-28 11:41:00,
2013-06-28 06:46:00,71.8,68.4,29.70,NW,306,0.0,3.0,89,0.05,,-RA,0.20,VWS V14.01,2013-06-28 11:46:00,
2013-06-28 06:51:00,72.0,68.6,29.70,NW,306,0.0,0.0,89,0.04,,SCT110,0.20,VWS V14.01,2013-06-28 11:51:00,
2013-06-28 06:56:00,72.0,68.6,29.70,NW,306,0.0,0.0,89,0.04,,SCT110,0.20,VWS V14.01,2013-06-28 11:56:00,
2013-06-28 07:06:00,72.0,68.6,29.68,NW,306,0.0,0.0,89,0.05,,-RA,0.21,VWS V14.01,2013-06-28 12:06:00,
2013-06-28 07:11:00,72.0,68.6,29.68,NW,306,0.0,0.0,89,0.04,,-RA,0.21,VWS V14.01,2013-06-28 12:11:00,
2013-06-28 07:16:00,72.0,68.6,29.68,NNW,339,1.0,3.0,89,0.04,,-RA,0.21,VWS V14.01,2013-06-28 12:16:00,
2013-06-28 07:26:00,72.0,68.9,29.68,ENE,74,4.0,5.0,90,0.04,,-RA,0.21,VWS V14.01,2013-06-28 12:26:00,
2013-06-28 07:36:00,71.8,68.7,29.66,ENE,76,4.0,7.0,90,0.03,,-RA,0.21,VWS V14.01,2013-06-28 12:36:00,
2013-06-28 07:46:00,72.0,68.9,29.67,ESE,112,0.0,4.0,90,0.02,,-RA,0.21,VWS V14.01,2013-06-28 12:46:00,
2013-06-28 07:51:00,72.3,69.2,29.67,ESE,112,1.0,1.0,90,0.01,,-RA,0.21,VWS V14.01,2013-06-28 12:51:00,
2013-06-28 07:56:00,72.5,69.4,29.67,SW,233,2.0,3.0,90,0.01,,-RA,0.21,VWS V14.01,2013-06-28 12:56:00,
2013-06-28 08:01:00,72.5,69.4,29.71,SW,222,0.0,5.0,90,0.01,,-RA,0.21,VWS V14.01,2013-06-28 13:01:00,
2013-06-28 08:11:00,72.7,69.6,29.71,WNW,290,0.0,6.0,90,0.00,,-RA,0.21,VWS V14.01,2013-06-28 13:11:00,
2013-06-28 08:16:00,72.8,69.7,29.70,WSW,251,0.0,3.0,90,0.00,,-RA,0.21,VWS V14.01,2013-06-28 13:16:00,
2013-06-28 08:21:00,73.0,69.9,29.70,WSW,251,0.0,2.0,90,0.01,,-RA,0.22,VWS V14.01,2013-06-28 13:21:00,
2013-06-28 08:26:00,73.0,69.9,29.70,WSW,251,0.0,2.0,90,0.01,,-RA,0.22,VWS V14.01,2013-06-28 13:26:00,
2013-06-28 08:31:00,73.0,69.9,29.71,SSW,212,0.0,5.0,90,0.01,,-RA,0.22,VWS V14.01,2013-06-28 13:31:00,
2013-06-28 08:36:00,73.3,70.2,29.71,WSW,239,2.0,6.0,90,0.01,,CLR,0.22,VWS V14.01,2013-06-28 13:36:00,
2013-06-28 08:46:00,73.5,70.1,29.74,SW,233,4.0,7.0,89,0.01,,CLR,0.22,VWS V14.01,2013-06-28 13:46:00,
2013-06-28 08:56:00,73.7,70.3,29.74,SSW,209,5.0,8.0,89,0.01,,CLR,0.22,VWS V14.01,2013-06-28 13:56:00,
2013-06-28 09:01:00,74.0,70.6,29.74,SW,234,5.0,7.0,89,0.01,,CLR,0.22,VWS V14.01,2013-06-28 14:01:00,
2013-06-28 09:06:00,74.2,70.8,29.74,SW,221,3.0,9.0,89,0.01,,CLR,0.22,VWS V14.01,2013-06-28 14:06:00,
2013-06-28 09:16:00,74.7,70.6,29.74,WSW,240,10.0,11.0,87,0.01,,CLR,0.22,VWS V14.01,2013-06-28 14:16:00,
2013-06-28 09:21:00,75.1,71.0,29.74,SW,233,6.0,11.0,87,0.01,,CLR,0.22,VWS V14.01,2013-06-28 14:21:00,
2013-06-28 09:26:00,75.3,70.8,29.74,SW,229,0.0,13.0,86,0.00,,CLR,0.22,VWS V14.01,2013-06-28 14:26:00,
2013-06-28 09:31:00,75.8,71.0,29.74,South,186,7.0,11.0,85,0.00,,CLR,0.22,VWS V14.01,2013-06-28 14:31:00,
2013-06-28 09:41:00,76.1,70.9,29.74,SW,227,2.0,8.0,84,0.00,,FEW110,0.22,VWS V14.01,2013-06-28 14:41:00,
2013-06-28 09:46:00,76.7,71.2,29.74,SW,228,3.0,8.0,83,0.00,,FEW110,0.22,VWS V14.01,2013-06-28 14:46:00,
2013-06-28 09:51:00,76.8,70.9,29.74,South,184,2.0,9.0,82,0.00,,FEW110,0.22,VWS V14.01,2013-06-28 14:51:00,
2013-06-28 09:56:00,77.4,71.1,29.74,WSW,242,5.0,10.0,81,0.00,,FEW110,0.22,VWS V14.01,2013-06-28 14:56:00,
2013-06-28 10:06:00,77.9,71.2,29.74,SW,220,6.0,8.0,80,0.00,,FEW110,0.22,VWS V14.01,2013-06-28 15:06:00,
2013-06-28 10:11:00,78.1,71.4,29.74,WNW,301,3.0,8.0,80,0.00,,FEW110,0.22,VWS V14.01,2013-06-28 15:11:00,
2013-06-28 10:16:00,78.3,70.9,29.74,SW,215,5.0,8.0,78,0.00,,FEW110,0.22,VWS V14.01,2013-06-28 15:16:00,
2013-06-28 10:21:00,79.0,71.9,29.74,West,261,3.0,7.0,79,0.00,,FEW110,0.22,VWS V14.01,2013-06-28 15:21:00,
2013-06-28 10:26:00,79.2,71.4,29.74,West,269,5.0,7.0,77,0.00,,FEW110,0.22,VWS V14.01,2013-06-28 15:26:00,
2013-06-28 10:31:00,79.2,71.0,29.74,WSW,248,5.0,7.0,76,0.00,,FEW110,0.22,VWS V14.01,2013-06-28 15:31:00,
2013-06-28 10:36:00,79.4,71.6,29.74,West,269,1.0,7.0,77,0.00,,FEW110,0.22,VWS V14.01,2013-06-28 15:36:00,
2013-06-28 10:46:00,80.5,71.8,29.74,WSW,254,4.0,6.0,75,0.00,,FEW110,0.22,VWS V14.01,2013-06-28 15:46:00,
2013-06-28 10:51:00,80.7,72.0,29.74,NW,311,1.0,9.0,75,0.00,,FEW110,0.22,VWS V14.01,2013-06-28 15:51:00,
2013-06-28 10:56:00,80.9,71.8,29.74,West,269,2.0,5.0,74,0.00,,FEW110,0.22,VWS V14.01,2013-06-28 15:56:00,
2013-06-28 11:01:00,81.2,71.7,29.74,WNW,294,2.0,6.0,73,0.00,,FEW110,0.22,VWS V14.01,2013-06-28 16:01:00,
2013-06-28 11:11:00,82.4,72.1,29.74,West,259,3.0,6.0,71,0.00,,FEW110,0.22,VWS V14.01,2013-06-28 16:11:00,
2013-06-28 11:21:00,82.4,70.8,29.74,NNW,331,3.0,7.0,68,0.00,,FEW110,0.22,VWS V14.01,2013-06-28 16:21:00,
2013-06-28 11:26:00,83.2,71.1,29.74,NW,304,0.0,7.0,67,0.00,,FEW110,0.22,VWS V14.01,2013-06-28 16:26:00,
2013-06-28 11:31:00,83.4,71.3,29.75,WNW,286,1.0,7.0,67,0.00,,FEW110,0.22,VWS V14.01,2013-06-28 16:31:00,
2013-06-28 11:36:00,83.8,71.2,29.75,WNW,295,1.0,6.0,66,0.00,,BKN110,0.22,VWS V14.01,2013-06-28 16:36:00,
2013-06-28 11:41:00,84.0,71.9,29.75,North,355,2.0,6.0,67,0.00,,BKN110,0.22,VWS V14.01,2013-06-28 16:41:00,
2013-06-28 11:46:00,84.3,70.8,29.74,NW,318,2.0,7.0,64,0.00,,BKN110,0.22,VWS V14.01,2013-06-28 16:46:00,
2013-06-28 11:56:00,84.7,69.8,29.74,NNW,330,4.0,6.0,61,0.00,,BKN110,0.22,VWS V14.01,2013-06-28 16:56:00,
2013-06-28 12:01:00,85.9,70.9,29.74,NNW,330,2.0,7.0,61,0.00,,BKN110,0.22,VWS V14.01,2013-06-28 17:01:00,
2013-06-28 12:06:00,85.7,70.7,29.74,West,269,0.0,7.0,61,0.00,,BKN110,0.22,VWS V14.01,2013-06-28 17:06:00,
2013-06-28 12:16:00,86.3,70.8,29.73,North,355,0.0,5.0,60,0.00,,BKN110,0.22,VWS V14.01,2013-06-28 17:16:00,
2013-06-28 12:21:00,87.0,70.9,29.73,NW,310,3.0,5.0,59,0.00,,BKN110,0.22,VWS V14.01,2013-06-28 17:21:00,
2013-06-28 12:31:00,86.7,70.2,29.72,North,355,0.0,5.0,58,0.00,,BKN110,0.22,VWS V14.01,2013-06-28 17:31:00,
2013-06-28 12:36:00,87.0,70.9,29.72,WNW,303,2.0,10.0,59,0.00,,CLR,0.22,VWS V14.01,2013-06-28 17:36:00,
2013-06-28 12:41:00,87.8,69.6,29.72,North,355,5.0,8.0,55,0.00,,CLR,0.22,VWS V14.01,2013-06-28 17:41:00,
2013-06-28 12:46:00,88.6,70.4,29.72,NNW,327,1.0,7.0,55,0.00,,CLR,0.22,VWS V14.01,2013-06-28 17:46:00,
2013-06-28 12:56:00,88.2,70.0,29.72,WNW,294,2.0,6.0,55,0.00,,CLR,0.22,VWS V14.01,2013-06-28 17:56:00,
2013-06-28 13:01:00,88.4,67.4,29.71,NW,317,0.0,8.0,50,0.00,,CLR,0.22,VWS V14.01,2013-06-28 18:01:00,
2013-06-28 13:06:00,88.8,68.9,29.71,NW,311,6.0,9.0,52,0.00,,CLR,0.22,VWS V14.01,2013-06-28 18:06:00,
2013-06-28 13:16:00,89.5,70.7,29.71,WNW,296,6.0,9.0,54,0.00,,CLR,0.22,VWS V14.01,2013-06-28 18:16:00,
2013-06-28 13:21:00,89.5,66.6,29.71,NW,325,1.0,10.0,47,0.00,,CLR,0.22,VWS V14.01,2013-06-28 18:21:00,
2013-06-28 13:26:00,89.9,67.0,29.71,North,360,7.0,8.0,47,0.00,,CLR,0.22,VWS V14.01,2013-06-28 18:26:00,
2013-06-28 13:36:00,89.9,67.6,29.70,NW,326,8.0,10.0,48,0.00,,FEW037,0.22,VWS V14.01,2013-06-28 18:36:00,
2013-06-28 13:41:00,90.1,67.2,29.70,WNW,303,10.0,10.0,47,0.00,,FEW037,0.22,VWS V14.01,2013-06-28 18:41:00,
2013-06-28 13:46:00,90.1,67.2,29.69,NNW,337,5.0,13.0,47,0.00,,FEW037,0.22,VWS V14.01,2013-06-28 18:46:00,
2013-06-28 13:51:00,89.5,67.8,29.69,WNW,301,5.0,8.0,49,0.00,,FEW037,0.22,VWS V14.01,2013-06-28 18:51:00,
2013-06-28 13:56:00,89.7,66.8,29.69,NW,304,7.0,10.0,47,0.00,,FEW037,0.22,VWS V14.01,2013-06-28 18:56:00,
2013-06-28 14:06:00,90.5,68.2,29.69,NW,309,0.0,8.0,48,0.00,,FEW037,0.22,VWS V14.01,2013-06-28 19:06:00,
2013-06-28 14:11:00,90.7,67.1,29.69,WNW,287,2.0,8.0,46,0.00,,FEW037,0.22,VWS V14.01,2013-06-28 19:11:00,
2013-06-28 14:21:00,91.2,66.9,29.68,NNW,334,4.0,10.0,45,0.00,,FEW037,0.22,VWS V14.01,2013-06-28 19:21:00,
2013-06-28 14:26:00,91.2,65.6,29.68,West,261,4.0,13.0,43,0.00,,FEW037,0.22,VWS V14.01,2013-06-28 19:26:00,
2013-06-28 14:31:00,91.2,64.9,29.68,NNW,331,3.0,9.0,42,0.00,,FEW037,0.22,VWS V14.01,2013-06-28 19:31:00,
2013-06-28 14:36:00,91.4,63.7,29.68,WNW,294,4.0,8.0,40,0.00,,CLR,0.22,VWS V14.01,2013-06-28 19:36:00,
2013-06-28 14:41:00,91.2,63.5,29.68,NNW,342,4.0,10.0,40,0.00,,CLR,0.22,VWS V14.01,2013-06-28 19:41:00,
2013-06-28 14:51:00,91.8,63.3,29.66,WNW,290,1.0,10.0,39,0.00,,CLR,0.22,VWS V14.01,2013-06-28 19:51:00,
2013-06-28 14:56:00,91.4,62.2,29.66,WSW,242,7.0,10.0,38,0.00,,CLR,0.22,VWS V14.01,2013-06-28 19:56:00,
2013-06-28 15:06:00,92.7,61.9,29.66,NW,315,3.0,10.0,36,0.00,,CLR,0.22,VWS V14.01,2013-06-28 20:06:00,
2013-06-28 15:11:00,92.1,62.1,29.66,NW,315,5.0,10.0,37,0.00,,CLR,0.22,VWS V14.01,2013-06-28 20:11:00,
2013-06-28 15:16:00,92.3,63.0,29.66,NNW,345,3.0,7.0,38,0.00,,CLR,0.22,VWS V14.01,2013-06-28 20:16:00,
2013-06-28 15:21:00,92.3,64.5,29.66,WNW,284,2.0,7.0,40,0.00,,CLR,0.22,VWS V14.01,2013-06-28 20:21:00,
2013-06-28 15:31:00,92.1,65.0,29.65,West,271,10.0,10.0,41,0.00,,CLR,0.22,VWS V14.01,2013-06-28 20:31:00,
2013-06-28 15:36:00,91.6,63.2,29.65,NNW,329,3.0,11.0,39,0.00,,CLR,0.22,VWS V14.01,2013-06-28 20:36:00,
2013-06-28 15:41:00,92.1,65.0,29.65,NW,312,2.0,14.0,41,0.00,,CLR,0.22,VWS V14.01,2013-06-28 20:41:00,
2013-06-28 15:51:00,92.3,63.8,29.65,NNW,340,4.0,9.0,39,0.00,,CLR,0.22,VWS V14.01,2013-06-28 20:51:00,
2013-06-28 15:56:00,92.3,62.3,29.65,NNE,16,4.0,10.0,37,0.00,,CLR,0.22,VWS V14.01,2013-06-28 20:56:00,
2013-06-28 16:06:00,92.5,61.7,29.65,NW,325,3.0,11.0,36,0.00,,CLR,0.22,VWS V14.01,2013-06-28 21:06:00,
2013-06-28 16:16:00,92.3,63.0,29.64,NW,324,4.0,7.0,38,0.00,,CLR,0.22,VWS V14.01,2013-06-28 21:16:00,
2013-06-28 16:26:00,92.3,62.3,29.64,WNW,292,5.0,8.0,37,0.00,,CLR,0.22,VWS V14.01,2013-06-28 21:26:00,
2013-06-28 16:31:00,92.5,62.5,29.63,WNW,296,5.0,9.0,37,0.00,,CLR,0.22,VWS V14.01,2013-06-28 21:31:00,
2013-06-28 16:41:00,92.1,62.9,29.63,NW,318,8.0,8.0,38,0.00,,CLR,0.22,VWS V14.01,2013-06-28 21:41:00,
2013-06-28 16:51:00,91.6,62.4,29.63,NNW,348,4.0,6.0,38,0.00,,CLR,0.22,VWS V14.01,2013-06-28 21:51:00,
2013-06-28 17:01:00,91.0,64.1,29.63,NW,305,0.0,7.0,41,0.00,,CLR,0.22,VWS V14.01,2013-06-28 22:01:00,
2013-06-28 17:06:00,91.6,64.6,29.63,WSW,248,4.0,9.0,41,0.00,,CLR,0.22,VWS V14.01,2013-06-28 22:06:00,
2013-06-28 17:16:00,90.5,65.0,29.63,WSW,250,1.0,8.0,43,0.00,,CLR,0.22,VWS V14.01,2013-06-28 22:16:00,
2013-06-28 17:26:00,90.7,63.8,29.63,WSW,255,7.0,11.0,41,0.00,,CLR,0.22,VWS V14.01,2013-06-28 22:26:00,
2013-06-28 17:31:00,90.3,62.7,29.62,WNW,292,5.0,9.0,40,0.00,,CLR,0.22,VWS V14.01,2013-06-28 22:31:00,
2013-06-28 17:36:00,90.3,64.1,29.62,NW,326,1.0,9.0,42,0.00,,CLR,0.22,VWS V14.01,2013-06-28 22:36:00,
2013-06-28 17:46:00,90.7,63.8,29.62,NW,311,4.0,9.0,41,0.00,,CLR,0.22,VWS V14.01,2013-06-28 22:46:00,
2013-06-28 17:56:00,91.2,63.5,29.62,NW,313,2.0,10.0,40,0.00,,CLR,0.22,VWS V14.01,2013-06-28 22:56:00,
2013-06-28 18:01:00,91.4,62.2,29.62,NNW,337,2.0,10.0,38,0.00,,CLR,0.22,VWS V14.01,2013-06-28 23:01:00,
2013-06-28 18:11:00,91.2,62.8,29.62,NNW,327,3.0,11.0,39,0.00,,CLR,0.22,VWS V14.01,2013-06-28 23:11:00,
2013-06-28 18:16:00,91.0,62.6,29.62,WNW,285,2.0,14.0,39,0.00,,CLR,0.22,VWS V14.01,2013-06-28 23:16:00,
2013-06-28 18:21:00,91.0,62.6,29.62,NW,319,5.0,11.0,39,0.00,,CLR,0.22,VWS V14.01,2013-06-28 23:21:00,
2013-06-28 18:31:00,90.3,62.0,29.61,West,263,5.0,13.0,39,0.00,,CLR,0.22,VWS V14.01,2013-06-28 23:31:00,
2013-06-28 18:36:00,90.1,62.5,29.61,SW,223,7.0,13.0,40,0.00,,CLR,0.22,VWS V14.01,2013-06-28 23:36:00,
2013-06-28 18:41:00,89.9,63.1,29.61,NNW,329,5.0,16.0,41,0.00,,CLR,0.22,VWS V14.01,2013-06-28 23:41:00,
2013-06-28 18:51:00,89.7,62.9,29.61,NW,322,9.0,14.0,41,0.00,,CLR,0.22,VWS V14.01,2013-06-28 23:51:00,
2013-06-28 18:56:00,89.5,63.4,29.61,NW,304,2.0,11.0,42,0.00,,CLR,0.22,VWS V14.01,2013-06-28 23:56:00,
2013-06-28 19:01:00,89.5,63.4,29.62,WNW,301,4.0,9.0,42,0.00,,CLR,0.22,VWS V14.01,2013-06-29 00:01:00,
2013-06-28 19:06:00,89.3,63.2,29.62,NW,313,5.0,12.0,42,0.00,,CLR,0.22,VWS V14.01,2013-06-29 00:06:00,
2013-06-28 19:11:00,89.3,63.9,29.62,NW,315,2.0,11.0,43,0.00,,CLR,0.22,VWS V14.01,2013-06-29 00:11:00,
2013-06-28 19:16:00,89.0,63.6,29.61,NW,319,5.0,8.0,43,0.00,,CLR,0.22,VWS V14.01,2013-06-29 00:16:00,
2013-06-28 19:26:00,88.8,64.1,29.61,WNW,300,2.0,6.0,44,0.00,,CLR,0.22,VWS V14.01,2013-06-29 00:26:00,
2013-06-28 19:31:00,88.4,64.4,29.62,WNW,296,5.0,7.0,45,0.00,,CLR,0.22,VWS V14.01,2013-06-29 00:31:00,
2013-06-28 19:41:00,87.6,64.9,29.62,West,273,5.0,8.0,47,0.00,,CLR,0.22,VWS V14.01,2013-06-29 00:41:00,
2013-06-28 19:46:00,87.2,64.5,29.62,NW,311,2.0,9.0,47,0.00,,CLR,0.22,VWS V14.01,2013-06-29 00:46:00,
2013-06-28 19:51:00,87.0,65.0,29.62,North,355,5.0,7.0,48,0.00,,CLR,0.22,VWS V14.01,2013-06-29 00:51:00,
2013-06-28 19:56:00,86.5,64.5,29.62,NW,310,2.0,7.0,48,0.00,,CLR,0.22,VWS V14.01,2013-06-29 00:56:00,
2013-06-28 20:06:00,86.1,64.1,29.62,WNW,290,2.0,8.0,48,0.00,,CLR,0.22,VWS V14.01,2013-06-29 01:06:00,
2013-06-28 20:11:00,85.9,64.5,29.62,NW,308,0.0,5.0,49,0.00,,CLR,0.22,VWS V14.01,2013-06-29 01:11:00,
2013-06-28 20:21:00,85.3,64.6,29.62,WNW,303,0.0,5.0,50,0.00,,CLR,0.22,VWS V14.01,2013-06-29 01:21:00,
2013-06-28 20:26:00,85.1,64.4,29.62,NW,304,1.0,3.0,50,0.00,,CLR,0.22,VWS V14.01,2013-06-29 01:26:00,
2013-06-28 20:31:00,84.9,64.2,29.62,NW,311,3.0,6.0,50,0.00,,CLR,0.22,VWS V14.01,2013-06-29 01:31:00,
2013-06-28 20:41:00,84.3,65.3,29.62,NW,324,3.0,6.0,53,0.00,,CLR,0.22,VWS V14.01,2013-06-29 01:41:00,
2013-06-28 20:46:00,84.0,65.1,29.62,NW,314,1.0,4.0,53,0.00,,CLR,0.22,VWS V14.01,2013-06-29 01:46:00,
2013-06-28 20:56:00,83.4,65.6,29.62,NW,309,3.0,5.0,55,0.00,,CLR,0.22,VWS V14.01,2013-06-29 01:56:00,
2013-06-28 21:01:00,83.2,65.9,29.63,NNW,331,1.0,4.0,56,0.00,,CLR,0.22,VWS V14.01,2013-06-29 02:01:00,
2013-06-28 21:11:00,82.8,66.0,29.63,NW,323,1.0,3.0,57,0.00,,CLR,0.22,VWS V14.01,2013-06-29 02:11:00,
2013-06-28 21:16:00,82.4,65.7,29.63,NW,321,2.0,4.0,57,0.00,,CLR,0.22,VWS V14.01,2013-06-29 02:16:00,
2013-06-28 21:26:00,82.0,65.3,29.63,NW,311,1.0,5.0,57,0.00,,CLR,0.22,VWS V14.01,2013-06-29 02:26:00,
2013-06-28 21:36:00,81.6,65.4,29.64,NW,310,0.0,5.0,58,0.00,,CLR,0.22,VWS V14.01,2013-06-29 02:36:00,
2013-06-28 21:46:00,81.1,65.9,29.64,NW,310,0.0,2.0,60,0.00,,CLR,0.22,VWS V14.01,2013-06-29 02:46:00,
2013-06-28 21:51:00,80.7,65.5,29.64,NW,319,3.0,5.0,60,0.00,,CLR,0.22,VWS V14.01,2013-06-29 02:51:00,
2013-06-28 21:56:00,80.3,64.7,29.64,NW,320,1.0,4.0,59,0.00,,CLR,0.22,VWS V14.01,2013-06-29 02:56:00,
2013-06-28 22:01:00,79.9,63.8,29.65,NW,324,1.0,5.0,58,0.00,,CLR,0.22,VWS V14.01,2013-06-29 03:01:00,
2013-06-28 22:11:00,79.8,62.7,29.65,NW,319,1.0,6.0,56,0.00,,CLR,0.22,VWS V14.01,2013-06-29 03:11:00,
2013-06-28 22:16:00,79.6,62.0,29.66,NW,309,0.0,5.0,55,0.00,,CLR,0.22,VWS V14.01,2013-06-29 03:16:00,
2013-06-28 22:26:00,79.4,62.3,29.66,NW,321,0.0,2.0,56,0.00,,CLR,0.22,VWS V14.01,2013-06-29 03:26:00,
2013-06-28 22:31:00,79.2,62.2,29.66,NW,321,0.0,2.0,56,0.00,,CLR,0.22,VWS V14.01,2013-06-29 03:31:00,
2013-06-28 22:36:00,79.0,62.0,29.66,NW,321,1.0,3.0,56,0.00,,CLR,0.22,VWS V14.01,2013-06-29 03:36:00,
2013-06-28 22:46:00,78.8,61.8,29.67,NW,321,0.0,2.0,56,0.00,,CLR,0.22,VWS V14.01,2013-06-29 03:46:00,
2013-06-28 22:51:00,78.6,61.6,29.67,NW,321,0.0,1.0,56,0.00,,CLR,0.22,VWS V14.01,2013-06-29 03:51:00,
2013-06-28 23:01:00,77.7,61.8,29.67,NW,321,0.0,0.0,58,0.00,,CLR,0.22,VWS V14.01,2013-06-29 04:01:00,
2013-06-28 23:06:00,77.2,62.2,29.67,NW,321,0.0,0.0,60,0.00,,CLR,0.22,VWS V14.01,2013-06-29 04:06:00,
2013-06-28 23:11:00,77.0,62.5,29.67,NW,321,0.0,0.0,61,0.00,,CLR,0.22,VWS V14.01,2013-06-29 04:11:00,
2013-06-28 23:16:00,76.7,62.2,29.68,NW,321,0.0,0.0,61,0.00,,CLR,0.22,VWS V14.01,2013-06-29 04:16:00,
2013-06-28 23:21:00,76.5,62.5,29.68,NW,321,0.0,0.0,62,0.00,,CLR,0.22,VWS V14.01,2013-06-29 04:21:00,
2013-06-28 23:26:00,76.1,61.7,29.68,NW,321,0.0,0.0,61,0.00,,CLR,0.22,VWS V14.01,2013-06-29 04:26:00,
2013-06-28 23:31:00,76.1,62.2,29.67,NW,321,0.0,0.0,62,0.00,,CLR,0.22,VWS V14.01,2013-06-29 04:31:00,
2013-06-28 23:36:00,76.3,61.4,29.67,NW,321,0.0,0.0,60,0.00,,CLR,0.22,VWS V14.01,2013-06-29 04:36:00,
2013-06-28 23:41:00,76.1,60.8,29.67,NW,321,0.0,0.0,59,0.00,,CLR,0.22,VWS V14.01,2013-06-29 04:41:00,
2013-06-28 23:51:00,75.6,61.2,29.68,NW,321,0.0,0.0,61,0.00,,CLR,0.22,VWS V14.01,2013-06-29 04:51:00,
2013-06-28 23:56:00,75.4,61.5,29.68,NW,321,0.0,0.0,62,0.00,,CLR,0.22,VWS V14.01,2013-06-29 04:56:00,